Time;durP1;ratioP1;P1;durP2;ratioP2;P2;SDS_P1;SDS_P2;PMS_P1;PMS_P2;Temp;Humidity;BMP_temperature;BMP_pressure;BME280_temperature;BME280_humidity;BME280_pressure;Samples;Min_cycle;Max_cycle;Signal;HPM_P1;HPM_P2
2023/10/23 00:01:36;;;;;;;8.80;4.78;;;13.10;99.90;;;;;;5075134;28;20511;-71
2023/10/23 00:04:02;;;;;;;6.53;4.78;;;13.10;99.90;;;;;;5074643;28;20043;-72
2023/10/23 00:06:27;;;;;;;11.57;5.65;;;13.30;99.90;;;;;;5091243;28;20123;-72
2023/10/23 00:08:53;;;;;;;5.97;3.92;;;13.10;99.90;;;;;;5092151;28;20040;-72
2023/10/23 00:11:26;;;;;;;5.85;4.47;;;13.10;99.90;;;;;;5091953;28;20040;-71
2023/10/23 00:13:52;;;;;;;12.50;5.20;;;;;;;;;;5092818;28;20036;-72
2023/10/23 00:16:18;;;;;;;6.03;4.65;;;13.30;99.90;;;;;;5092129;28;20132;-71
2023/10/23 00:18:44;;;;;;;5.70;4.40;;;13.30;99.90;;;;;;5093434;28;20032;-71
2023/10/23 00:21:10;;;;;;;8.05;4.68;;;13.40;99.90;;;;;;5093805;28;20031;-72
2023/10/23 00:23:36;;;;;;;6.05;4.50;;;13.20;99.90;;;;;;5091559;28;20142;-72
2023/10/23 00:26:02;;;;;;;8.13;5.35;;;;;;;;;;5091648;28;20036;-72
2023/10/23 00:28:28;;;;;;;7.75;4.97;;;;;;;;;;5091895;28;20044;-72
2023/10/23 00:30:54;;;;;;;6.25;4.85;;;;;;;;;;5091343;28;20518;-71
2023/10/23 00:33:20;;;;;;;7.15;5.30;;;;;;;;;;5074474;28;20047;-70
2023/10/23 00:35:45;;;;;;;6.45;4.90;;;13.30;99.90;;;;;;5091435;28;20570;-71
2023/10/23 00:38:11;;;;;;;9.05;5.32;;;;;;;;;;5091494;28;20051;-71
2023/10/23 00:40:37;;;;;;;6.10;4.80;;;13.00;99.90;;;;;;5091534;28;20032;-72
2023/10/23 00:43:12;;;;;;;7.03;5.03;;;;;;;;;;5074187;28;20047;-71
2023/10/23 00:45:48;;;;;;;7.15;5.07;;;13.30;99.90;;;;;;5074399;28;20040;-71
2023/10/23 00:48:15;;;;;;;6.43;4.65;;;;;;;;;;5074643;28;20048;-72
2023/10/23 00:50:41;;;;;;;8.07;5.47;;;;;;;;;;5091353;28;20047;-71
2023/10/23 00:53:07;;;;;;;7.28;5.25;;;13.30;99.90;;;;;;5090839;28;20036;-71
2023/10/23 00:55:32;;;;;;;8.85;4.72;;;;;;;;;;5074152;28;20402;-72
2023/10/23 00:57:58;;;;;;;6.55;4.75;;;13.30;99.90;;;;;;5074479;28;20082;-72
2023/10/23 01:00:24;;;;;;;5.90;4.53;;;12.90;99.90;;;;;;5091051;28;20032;-72
2023/10/23 01:02:50;;;;;;;8.05;4.70;;;13.40;99.90;;;;;;5090761;28;20457;-72
2023/10/23 01:05:16;;;;;;;9.93;5.28;;;13.00;99.90;;;;;;5073950;28;20499;-71
2023/10/23 01:07:41;;;;;;;9.52;5.82;;;12.90;99.90;;;;;;5090820;28;20123;-71
2023/10/23 01:10:08;;;;;;;6.97;5.00;;;;;;;;;;5090839;28;20039;-71
2023/10/23 01:12:34;;;;;;;8.85;5.25;;;;;;;;;;5103462;22;20048;-70
2023/10/23 01:15:00;;;;;;;7.75;5.00;;;;;;;;;;5053752;28;20518;-70
2023/10/23 01:17:26;;;;;;;7.63;5.20;;;;;;;;;;5070255;28;20040;-69
2023/10/23 01:19:52;;;;;;;6.30;4.97;;;;;;;;;;5070560;28;20071;-70
2023/10/23 01:22:18;;;;;;;6.88;5.50;;;;;;;;;;5070125;28;20036;-70
2023/10/23 01:24:46;;;;;;;8.48;5.47;;;12.80;99.90;;;;;;5053768;28;20041;-69
2023/10/23 01:27:12;;;;;;;6.82;5.10;;;;;;;;;;5053732;28;20055;-69
2023/10/23 01:29:38;;;;;;;6.55;5.35;;;;;;;;;;5070374;28;20500;-70
2023/10/23 01:32:04;;;;;;;6.20;5.07;;;12.80;99.90;;;;;;5070321;28;20052;-69
2023/10/23 01:34:30;;;;;;;6.82;5.10;;;12.70;99.90;;;;;;5069897;28;20615;-69
2023/10/23 01:36:55;;;;;;;7.78;5.43;;;12.80;99.90;;;;;;5071676;28;20032;-69
2023/10/23 01:39:22;;;;;;;6.30;4.80;;;12.50;99.90;;;;;;5070197;28;20043;-69
2023/10/23 01:41:48;;;;;;;8.73;5.50;;;12.50;99.90;;;;;;5070073;28;20037;-69
2023/10/23 01:44:14;;;;;;;6.70;5.43;;;;;;;;;;5070057;28;20452;-70
2023/10/23 01:46:40;;;;;;;6.75;5.25;;;;;;;;;;5073871;28;20457;-69
2023/10/23 01:49:05;;;;;;;8.48;5.05;;;12.60;99.90;;;;;;5073493;28;20040;-70
2023/10/23 01:51:31;;;;;;;9.25;4.88;;;;;;;;;;5072748;28;20403;-69
2023/10/23 01:53:57;;;;;;;7.75;5.07;;;;;;;;;;5069911;28;20044;-69
2023/10/23 01:56:23;;;;;;;6.72;5.28;;;12.50;99.90;;;;;;5070013;28;20049;-69
2023/10/23 01:58:50;;;;;;;7.10;5.22;;;12.50;99.90;;;;;;5053336;28;20119;-69
2023/10/23 02:01:26;;;;;;;9.27;5.53;;;;;;;;;;5069960;28;20036;-69
2023/10/23 02:03:52;;;;;;;6.90;5.07;;;;;;;;;;5069701;28;20047;-70
2023/10/23 02:06:18;;;;;;;7.45;5.55;;;;;;;;;;5070039;28;20036;-69
2023/10/23 02:08:44;;;;;;;5.90;4.78;;;12.40;99.90;;;;;;5069955;28;20045;-69
2023/10/23 02:11:10;;;;;;;7.05;4.90;;;;;;;;;;5069887;28;20045;-69
2023/10/23 02:13:36;;;;;;;7.35;4.80;;;12.50;99.90;;;;;;5052524;28;20465;-69
2023/10/23 02:16:02;;;;;;;6.38;5.13;;;;;;;;;;5069708;28;20044;-69
2023/10/23 02:18:28;;;;;;;6.70;5.50;;;;;;;;;;5069555;28;20056;-69
2023/10/23 02:20:54;;;;;;;7.65;5.57;;;;;;;;;;5069786;28;20492;-70
2023/10/23 02:23:20;;;;;;;7.03;5.30;;;12.40;99.90;;;;;;5069500;28;20044;-69
2023/10/23 02:25:46;;;;;;;9.35;5.38;;;;;;;;;;5069777;28;20043;-69
2023/10/23 02:28:13;;;;;;;7.65;5.55;;;12.30;99.90;;;;;;5070984;28;20048;-69
2023/10/23 02:30:39;;;;;;;6.85;4.70;;;12.50;99.90;;;;;;5074141;28;20044;-69
2023/10/23 02:33:05;;;;;;;9.50;5.03;;;;;;;;;;5073030;28;20066;-70
2023/10/23 02:35:34;;;;;;;9.02;5.40;;;12.30;99.90;;;;;;5073375;28;20490;-69
2023/10/23 02:38:00;;;;;;;6.32;5.30;;;12.30;99.90;;;;;;5073374;28;20032;-69
2023/10/23 02:40:25;;;;;;;10.15;5.53;;;12.20;99.90;;;;;;5073251;28;20043;-70
2023/10/23 02:42:51;;;;;;;7.18;5.70;;;;;;;;;;5056698;28;20166;-70
2023/10/23 02:45:18;;;;;;;7.82;5.90;;;;;;;;;;5073396;28;20052;-70
2023/10/23 02:47:44;;;;;;;9.43;5.93;;;;;;;;;;5073191;28;20040;-69
2023/10/23 02:50:10;;;;;;;9.05;5.80;;;;;;;;;;5073363;28;20040;-70
2023/10/23 02:52:36;;;;;;;9.18;6.05;;;;;;;;;;5072998;28;20076;-70
2023/10/23 02:55:02;;;;;;;7.63;5.82;;;;;;;;;;5073017;28;20072;-70
2023/10/23 02:57:27;;;;;;;9.15;6.35;;;12.60;99.90;;;;;;5073095;28;20550;-69
2023/10/23 02:59:55;;;;;;;9.70;6.15;;;12.50;99.90;;;;;;5074202;28;20040;-69
2023/10/23 03:02:21;;;;;;;8.13;5.95;;;12.30;99.90;;;;;;5074316;28;20043;-69
2023/10/23 03:04:46;;;;;;;6.75;5.72;;;12.20;99.90;;;;;;5074333;28;20044;-69
2023/10/23 03:07:13;;;;;;;7.63;5.68;;;12.40;99.90;;;;;;5072810;28;20392;-69
2023/10/23 03:09:39;;;;;;;7.32;6.05;;;;;;;;;;5072798;28;20052;-70
2023/10/23 03:12:05;;;;;;;9.60;6.22;;;12.20;99.90;;;;;;5055976;28;20037;-70
2023/10/23 03:14:31;;;;;;;12.43;7.70;;;12.30;99.90;;;;;;5055875;28;20408;-69
2023/10/23 03:16:57;;;;;;;8.48;5.88;;;12.10;99.90;;;;;;5072978;28;20036;-69
2023/10/23 03:19:25;;;;;;;7.53;6.03;;;12.20;99.90;;;;;;5072620;28;20047;-69
2023/10/23 03:21:55;;;;;;;11.13;7.63;;;;;;;;;;5072649;28;20039;-69
2023/10/23 03:24:21;;;;;;;9.13;6.75;;;;;;;;;;5072522;28;20072;-69
2023/10/23 03:26:47;;;;;;;8.10;6.13;;;;;;;;;;5056087;28;20503;-69
2023/10/23 03:29:13;;;;;;;9.60;6.40;;;;;;;;;;5055705;28;20048;-70
2023/10/23 03:31:39;;;;;;;8.80;6.28;;;12.20;99.90;;;;;;5072638;28;20051;-69
2023/10/23 03:34:04;;;;;;;8.70;6.55;;;12.50;99.90;;;;;;5072172;28;20120;-69
2023/10/23 03:36:30;;;;;;;9.60;6.97;;;12.40;99.90;;;;;;5072258;28;20087;-69
2023/10/23 03:38:56;;;;;;;11.15;7.40;;;;;;;;;;5073392;28;20041;-70
2023/10/23 03:41:22;;;;;;;7.47;6.55;;;;;;;;;;5071991;28;20041;-69
2023/10/23 03:43:48;;;;;;;11.90;7.07;;;;;;;;;;5072189;28;20047;-70
2023/10/23 03:46:13;;;;;;;9.00;6.60;;;12.60;99.90;;;;;;5036949;28;20072;-69
2023/10/23 03:48:39;;;;;;;9.80;7.05;;;12.40;99.90;;;;;;5051964;28;20420;-69
2023/10/23 03:51:05;;;;;;;9.68;7.13;;;12.70;99.90;;;;;;5052215;28;20033;-69
2023/10/23 03:53:31;;;;;;;10.48;7.13;;;12.50;99.90;;;;;;5051898;28;20045;-70
2023/10/23 03:55:57;;;;;;;10.50;7.82;;;;;;;;;;5051786;28;20084;-70
2023/10/23 03:58:23;;;;;;;8.65;7.47;;;;;;;;;;5051879;28;20052;-69
2023/10/23 04:00:53;;;;;;;10.82;7.80;;;12.40;99.90;;;;;;5051829;28;20070;-70
2023/10/23 04:03:19;;;;;;;10.27;7.03;;;;;;;;;;5051854;28;20584;-69
2023/10/23 04:05:44;;;;;;;12.05;7.35;;;12.20;99.90;;;;;;5051758;28;20040;-70
2023/10/23 04:08:10;;;;;;;10.70;6.85;;;12.10;99.90;;;;;;5051667;28;20456;-69
2023/10/23 04:10:35;;;;;;;11.30;7.47;;;12.20;99.90;;;;;;5051927;28;20408;-70
2023/10/23 04:13:02;;;;;;;8.45;6.60;;;;;;;;;;5053286;28;20094;-70
2023/10/23 04:15:28;;;;;;;13.63;7.90;;;;;;;;;;5035866;28;20497;-69
2023/10/23 04:17:54;;;;;;;10.55;7.38;;;;;;;;;;5034940;28;20044;-70
2023/10/23 04:20:20;;;;;;;11.77;8.07;;;;;;;;;;5052687;28;20056;-70
2023/10/23 04:22:46;;;;;;;8.82;7.57;;;;;;;;;;5051053;28;20072;-69
2023/10/23 04:25:11;;;;;;;9.88;7.28;;;12.10;99.90;;;;;;5051240;28;20141;-69
2023/10/23 04:27:37;;;;;;;10.05;7.22;;;12.20;99.90;;;;;;5051503;28;20047;-69
2023/10/23 04:30:06;;;;;;;10.43;7.15;;;12.10;99.90;;;;;;5051199;28;20040;-69
2023/10/23 04:32:31;;;;;;;14.00;8.00;;;12.10;99.90;;;;;;5034212;28;20041;-70
2023/10/23 04:34:57;;;;;;;10.32;7.60;;;;;;;;;;5050282;28;20053;-70
2023/10/23 04:37:23;;;;;;;11.70;7.32;;;12.30;99.90;;;;;;5050175;28;20069;-69
2023/10/23 04:39:49;;;;;;;9.95;7.28;;;;;;;;;;5033742;28;20037;-70
2023/10/23 04:42:15;;;;;;;11.35;7.50;;;;;;;;;;5050291;28;20080;-69
2023/10/23 04:44:41;;;;;;;10.20;7.70;;;;;;;;;;5050642;28;20524;-70
2023/10/23 04:47:07;;;;;;;10.23;7.03;;;;;;;;;;5051054;28;20114;-68
2023/10/23 04:49:33;;;;;;;10.55;7.65;;;;;;;;;;5050981;28;20053;-69
2023/10/23 04:51:58;;;;;;;13.23;7.93;;;12.10;99.90;;;;;;5051648;28;20037;-69
2023/10/23 04:54:24;;;;;;;8.10;6.35;;;;;;;;;;5051869;28;20048;-69
2023/10/23 04:56:50;;;;;;;8.48;7.40;;;;;;;;;;5051960;28;20041;-69
2023/10/23 04:59:16;;;;;;;10.05;7.40;;;;;;;;;;5050665;28;20037;-69
2023/10/23 05:01:42;;;;;;;9.00;7.20;;;;;;;;;;5050663;28;20041;-69
2023/10/23 05:04:08;;;;;;;8.60;6.53;;;;;;;;;;5050400;28;20497;-70
2023/10/23 05:06:34;;;;;;;9.15;7.13;;;;;;;;;;5056863;28;20036;-69
2023/10/23 05:09:00;;;;;;;9.95;7.50;;;;;;;;;;5053438;28;20122;-70
2023/10/23 05:11:26;;;;;;;11.80;7.22;;;;;;;;;;5069873;28;20189;-70
2023/10/23 05:13:52;;;;;;;9.13;7.28;;;;;;;;;;5053584;28;20526;-71
2023/10/23 05:16:18;;;;;;;10.45;7.25;;;;;;;;;;5053298;28;20048;-70
2023/10/23 05:18:44;;;;;;;9.13;6.57;;;;;;;;;;5053303;28;20033;-71
2023/10/23 05:21:12;;;;;;;10.15;8.05;;;11.70;99.90;;;;;;5070216;28;20165;-71
2023/10/23 05:23:39;;;;;;;14.25;8.07;;;;;;;;;;5068843;28;20048;-71
2023/10/23 05:26:05;;;;;;;12.05;7.65;;;;;;;;;;5069877;28;20133;-72
2023/10/23 05:28:31;;;;;;;9.10;7.47;;;;;;;;;;5070030;28;20044;-70
2023/10/23 05:30:57;;;;;;;11.50;7.18;;;11.60;99.90;;;;;;5069826;28;20047;-70
2023/10/23 05:33:23;;;;;;;10.10;7.15;;;11.70;99.90;;;;;;5066973;28;20403;-70
2023/10/23 05:35:49;;;;;;;9.40;7.50;;;;;;;;;;5069835;28;20041;-71
2023/10/23 05:38:15;;;;;;;8.95;7.50;;;;;;;;;;5069817;28;20040;-71
2023/10/23 05:40:41;;;;;;;10.25;7.38;;;11.50;99.90;;;;;;5070057;28;20083;-71
2023/10/23 05:43:06;;;;;;;8.00;6.70;;;11.30;99.90;;;;;;5069547;28;20032;-70
2023/10/23 05:45:35;;;;;;;11.93;8.35;;;11.40;99.90;;;;;;5069839;28;20036;-71
2023/10/23 05:48:01;;;;;;;9.90;7.63;;;11.60;99.90;;;;;;5069956;28;20399;-71
2023/10/23 05:50:26;;;;;;;10.20;7.38;;;11.40;99.90;;;;;;5052972;28;20036;-71
2023/10/23 05:52:52;;;;;;;10.02;7.88;;;;;;;;;;5069225;28;20044;-70
2023/10/23 05:55:18;;;;;;;9.85;7.97;;;;;;;;;;5069709;28;20049;-70
2023/10/23 05:57:46;;;;;;;10.40;8.40;;;;;;;;;;5050371;28;20411;-71
2023/10/23 06:00:12;;;;;;;10.82;8.13;;;;;;;;;;5053246;28;20041;-71
2023/10/23 06:02:38;;;;;;;10.57;8.60;;;;;;;;;;5068697;28;20085;-70
2023/10/23 06:05:05;;;;;;;10.32;7.78;;;;;;;;;;5072674;28;20040;-71
2023/10/23 06:07:31;;;;;;;9.80;8.02;;;;;;;;;;5056541;28;20041;-70
2023/10/23 06:09:58;;;;;;;11.98;8.73;;;11.40;99.90;;;;;;5073701;28;20189;-70
2023/10/23 06:12:23;;;;;;;11.07;8.07;;;11.40;99.90;;;;;;5073241;28;20131;-71
2023/10/23 06:14:50;;;;;;;11.18;8.63;;;11.40;99.90;;;;;;5073497;28;20067;-71
2023/10/23 06:17:15;;;;;;;12.73;8.63;;;11.50;99.90;;;;;;5073195;28;20040;-71
2023/10/23 06:19:41;;;;;;;9.93;8.07;;;;;;;;;;5068691;28;20403;-70
2023/10/23 06:22:07;;;;;;;10.50;8.77;;;;;;;;;;5052629;28;20119;-71
2023/10/23 06:24:33;;;;;;;14.07;8.82;;;;;;;;;;5070947;28;20123;-72
2023/10/23 06:26:59;;;;;;;10.27;8.10;;;11.50;99.90;;;;;;5071215;28;20680;-71
2023/10/23 06:29:25;;;;;;;10.82;8.20;;;11.40;99.90;;;;;;5050853;28;20028;-70
2023/10/23 06:31:51;;;;;;;11.23;8.50;;;11.70;99.90;;;;;;5069412;28;20035;-71
2023/10/23 06:34:17;;;;;;;12.43;9.55;;;;;;;;;;5068042;28;20041;-71
2023/10/23 06:36:43;;;;;;;10.82;7.90;;;11.60;99.90;;;;;;5068894;28;20036;-70
2023/10/23 06:39:09;;;;;;;10.63;7.82;;;;;;;;;;5069577;28;20035;-70
2023/10/23 06:41:35;;;;;;;11.68;8.52;;;;;;;;;;5065522;28;20445;-70
2023/10/23 06:44:00;;;;;;;10.68;7.90;;;11.50;99.90;;;;;;5069530;28;20086;-71
2023/10/23 06:46:26;;;;;;;11.18;8.48;;;;;;;;;;5057902;28;20060;-71
2023/10/23 06:48:52;;;;;;;12.32;8.38;;;;;;;;;;5057685;28;20048;-71
2023/10/23 06:51:18;;;;;;;17.95;9.45;;;11.30;99.90;;;;;;5059099;28;20131;-70
2023/10/23 06:53:44;;;;;;;11.73;8.70;;;;;;;;;;5050251;28;20037;-70
2023/10/23 06:56:09;;;;;;;11.45;8.50;;;11.70;99.90;;;;;;5063602;28;20543;-70
2023/10/23 06:58:35;;;;;;;10.90;8.43;;;;;;;;;;5052916;28;20056;-70
2023/10/23 07:01:06;;;;;;;12.25;8.82;;;11.50;99.90;;;;;;5057595;28;20384;-70
2023/10/23 07:03:32;;;;;;;12.63;8.25;;;;;;;;;;5059324;28;20102;-70
2023/10/23 07:05:58;;;;;;;12.00;8.40;;;11.50;99.90;;;;;;5047032;28;20147;-71
2023/10/23 07:08:24;;;;;;;13.25;8.48;;;;;;;;;;5058424;28;20076;-71
2023/10/23 07:10:50;;;;;;;11.63;8.77;;;;;;;;;;5060128;28;20041;-71
2023/10/23 07:13:16;;;;;;;11.02;8.30;;;;;;;;;;5055153;28;20048;-71
2023/10/23 07:15:42;;;;;;;13.80;9.35;;;;;;;;;;5056969;28;20044;-71
2023/10/23 07:18:10;;;;;;;13.02;8.75;;;;;;;;;;5058282;28;20040;-71
2023/10/23 07:20:38;;;;;;;11.82;9.13;;;;;;;;;;5064683;28;20045;-71
2023/10/23 07:23:04;;;;;;;11.02;9.18;;;;;;;;;;5060765;28;20033;-72
2023/10/23 07:25:30;;;;;;;13.13;9.57;;;;;;;;;;5056717;28;20048;-72
2023/10/23 07:27:57;;;;;;;14.13;9.38;;;;;;;;;;5052793;28;20519;-72
2023/10/23 07:30:24;;;;;;;13.95;9.77;;;;;;;;;;5060526;28;20044;-70
2023/10/23 07:32:50;;;;;;;14.80;11.75;;;12.10;99.90;;;;;;5043386;28;20033;-69
2023/10/23 07:35:16;;;;;;;14.48;11.57;;;12.30;99.90;;;;;;5064379;28;20508;-70
2023/10/23 07:37:42;;;;;;;12.73;9.88;;;12.40;99.90;;;;;;5070823;28;20039;-70
2023/10/23 07:40:08;;;;;;;12.95;9.68;;;;;;;;;;5041358;28;20527;-70
2023/10/23 07:42:34;;;;;;;15.98;9.95;;;12.70;99.90;;;;;;5056169;28;20061;-69
2023/10/23 07:45:00;;;;;;;16.95;10.88;;;12.70;99.90;;;;;;5048789;28;20080;-70
2023/10/23 07:47:27;;;;;;;14.02;10.43;;;12.50;99.90;;;;;;5062067;28;20048;-70
2023/10/23 07:49:53;;;;;;;13.90;9.73;;;;;;;;;;5062891;28;20102;-70
2023/10/23 07:52:19;;;;;;;14.15;10.50;;;13.00;99.90;;;;;;5056726;28;20056;-70
2023/10/23 07:54:44;;;;;;;19.25;9.82;;;12.90;99.90;;;;;;5071462;28;20075;-70
2023/10/23 07:57:10;;;;;;;15.65;10.40;;;13.20;99.90;;;;;;5054578;28;20542;-70
2023/10/23 07:59:36;;;;;;;15.25;11.32;;;;;;;;;;5060999;28;20055;-68
2023/10/23 08:02:02;;;;;;;14.77;10.82;;;13.10;99.90;;;;;;5054854;28;20043;-71
2023/10/23 08:04:29;;;;;;;13.45;10.13;;;;;;;;;;5063307;28;20039;-71
2023/10/23 08:06:54;;;;;;;18.48;9.57;;;;;;;;;;5070548;28;20044;-71
2023/10/23 08:09:21;;;;;;;15.75;9.60;;;13.70;99.90;;;;;;5071959;28;20043;-71
2023/10/23 08:11:47;;;;;;;13.10;10.10;;;13.90;99.90;;;;;;5063151;28;20072;-71
2023/10/23 08:14:13;;;;;;;13.65;10.18;;;;;;;;;;5062065;28;20079;-71
2023/10/23 08:16:39;;;;;;;15.27;9.90;;;;;;;;;;5062033;28;20037;-71
2023/10/23 08:19:05;;;;;;;14.45;9.88;;;;;;;;;;5064113;28;20162;-71
2023/10/23 08:21:31;;;;;;;10.63;8.18;;;13.80;99.90;;;;;;5071583;28;20135;-70
2023/10/23 08:23:56;;;;;;;18.10;11.35;;;14.20;99.90;;;;;;5068847;28;20484;-72
2023/10/23 08:26:22;;;;;;;14.15;9.25;;;14.60;99.90;;;;;;5070002;28;20044;-72
2023/10/23 08:28:48;;;;;;;15.05;9.82;;;14.40;99.90;;;;;;5068809;28;20119;-72
2023/10/23 08:31:14;;;;;;;16.25;10.10;;;14.60;99.90;;;;;;5070981;28;20127;-71
2023/10/23 08:33:40;;;;;;;13.18;10.25;;;;;;;;;;5070183;28;20404;-72
2023/10/23 08:36:06;;;;;;;13.15;9.35;;;14.70;99.90;;;;;;5070526;28;20041;-71
2023/10/23 08:38:33;;;;;;;12.43;9.57;;;;;;;;;;5070635;28;20035;-71
2023/10/23 08:41:01;;;;;;;12.35;9.00;;;15.20;99.90;;;;;;5070231;28;20098;-71
2023/10/23 08:43:27;;;;;;;11.98;10.18;;;;;;;;;;5070245;28;20064;-71
2023/10/23 08:45:54;;;;;;;10.85;8.90;;;14.90;99.90;;;;;;5070695;28;20040;-71
2023/10/23 08:48:21;;;;;;;13.75;9.35;;;15.10;99.90;;;;;;5053798;28;20431;-71
2023/10/23 08:50:48;;;;;;;11.05;9.05;;;;;;;;;;5070459;28;20047;-69
2023/10/23 08:53:15;;;;;;;11.25;8.27;;;15.50;99.90;;;;;;5067937;28;20044;-71
2023/10/23 08:55:42;;;;;;;10.73;8.40;;;15.20;99.90;;;;;;5070187;28;20032;-71
2023/10/23 08:58:08;;;;;;;14.38;8.70;;;15.60;99.90;;;;;;5051416;28;20040;-71
2023/10/23 09:00:34;;;;;;;12.50;10.00;;;15.70;99.90;;;;;;5051025;28;20392;-71
2023/10/23 09:03:00;;;;;;;10.23;8.00;;;15.60;99.90;;;;;;5050134;28;20033;-71
2023/10/23 09:05:26;;;;;;;8.80;7.00;;;15.60;99.90;;;;;;5052147;28;20045;-71
2023/10/23 09:07:51;;;;;;;10.75;8.15;;;15.90;99.90;;;;;;5050711;28;20037;-71
2023/10/23 09:10:17;;;;;;;9.23;7.88;;;16.00;99.90;;;;;;5051670;28;20071;-71
2023/10/23 09:12:43;;;;;;;10.80;8.05;;;15.90;99.90;;;;;;5051385;28;20098;-71
2023/10/23 09:15:23;;;;;;;12.90;9.05;;;16.00;99.90;;;;;;5050360;28;20045;-72
2023/10/23 09:17:49;;;;;;;10.02;7.38;;;;;;;;;;5052861;28;20092;-72
2023/10/23 09:20:24;;;;;;;10.88;8.18;;;16.30;99.90;;;;;;5070355;28;20044;-70
2023/10/23 09:22:53;;;;;;;9.45;7.28;;;16.20;99.90;;;;;;5070006;28;20036;-70
2023/10/23 09:25:24;;;;;;;12.18;8.30;;;16.30;99.90;;;;;;5070028;28;20518;-70
2023/10/23 09:27:50;;;;;;;8.57;7.00;;;16.30;99.90;;;;;;5053368;28;20051;-70
2023/10/23 09:30:23;;;;;;;8.02;7.05;;;;;;;;;;5053456;28;20048;-70
2023/10/23 09:32:53;;;;;;;9.73;7.28;;;16.40;99.90;;;;;;5067719;28;20048;-70
2023/10/23 09:35:21;;;;;;;8.90;6.20;;;16.80;99.90;;;;;;5069982;28;20086;-70
2023/10/23 09:37:47;;;;;;;9.02;6.43;;;16.40;99.90;;;;;;5070786;28;20058;-70
2023/10/23 09:40:13;;;;;;;8.48;6.50;;;16.60;99.90;;;;;;5069091;28;20037;-70
2023/10/23 09:42:40;;;;;;;9.25;7.43;;;16.70;99.90;;;;;;5068613;28;20066;-72
2023/10/23 09:45:06;;;;;;;9.85;6.43;;;17.20;99.90;;;;;;5069659;28;20127;-69
2023/10/23 09:47:32;;;;;;;8.27;6.10;;;;;;;;;;5070069;28;20044;-72
2023/10/23 09:49:59;;;;;;;8.13;5.55;;;17.00;99.90;;;;;;5070618;28;20041;-72
2023/10/23 09:52:26;;;;;;;10.73;6.43;;;17.30;99.90;;;;;;5071415;28;20075;-71
2023/10/23 09:55:00;;;;;;;9.18;5.97;;;17.50;99.90;;;;;;5052436;28;20051;-72
2023/10/23 09:57:36;;;;;;;7.30;5.07;;;17.40;99.90;;;;;;5069928;28;20060;-71
2023/10/23 10:00:13;;;;;;;6.38;4.55;;;17.30;99.90;;;;;;5051280;28;20033;-72
2023/10/23 10:02:51;;;;;;;6.07;4.45;;;16.90;99.90;;;;;;5069012;28;20064;-71
2023/10/23 10:05:58;;;;;;;7.20;4.45;;;17.00;99.90;;;;;;5070003;28;20056;-70
2023/10/23 10:08:26;;;;;;;5.75;4.25;;;17.50;99.90;;;;;;4989328;28;20081;-71
2023/10/23 10:10:53;;;;;;;7.80;5.32;;;17.20;99.90;;;;;;4972565;28;20038;-71
2023/10/23 10:13:20;;;;;;;5.95;4.43;;;17.40;99.90;;;;;;5019119;28;20052;-71
2023/10/23 10:15:48;;;;;;;9.55;5.43;;;17.70;99.90;;;;;;5061596;28;20036;-71
2023/10/23 10:18:16;;;;;;;6.85;5.45;;;17.60;99.90;;;;;;5056552;28;20041;-71
2023/10/23 10:20:47;;;;;;;10.23;5.47;;;17.80;99.90;;;;;;5053402;28;20072;-71
2023/10/23 10:23:15;;;;;;;6.93;4.60;;;17.90;99.90;;;;;;5045406;28;20037;-72
2023/10/23 10:25:46;;;;;;;6.32;4.47;;;18.20;99.90;;;;;;5051626;28;20044;-71
2023/10/23 10:28:13;;;;;;;6.25;4.78;;;18.10;99.90;;;;;;5053167;28;20041;-71
2023/10/23 10:30:46;;;;;;;6.70;3.75;;;17.90;99.90;;;;;;5045515;28;20473;-70
2023/10/23 10:33:21;;;;;;;;;;;18.20;99.90;;;;;;5055601;28;20668;-70
2023/10/23 10:35:49;;;;;;;6.68;4.22;;;18.20;99.90;;;;;;5064270;28;20380;-71
2023/10/23 10:38:22;;;;;;;7.18;4.70;;;18.30;99.90;;;;;;5065981;28;20396;-71
2023/10/23 10:40:56;;;;;;;6.22;4.10;;;;;;;;;;5047605;28;20429;-70
2023/10/23 10:43:24;;;;;;;7.18;3.33;;;18.10;99.90;;;;;;5065865;28;20128;-71
2023/10/23 10:45:50;;;;;;;7.75;3.63;;;;;;;;;;5062220;28;20048;-71
2023/10/23 10:48:16;;;;;;;7.03;3.30;;;;;;;;;;5053535;28;20055;-71
2023/10/23 10:50:42;;;;;;;5.20;3.17;;;;;;;;;;5061922;28;20074;-70
2023/10/23 10:53:12;;;;;;;4.13;2.40;;;18.40;99.90;;;;;;5058188;28;20044;-71
2023/10/23 10:55:38;;;;;;;4.40;3.38;;;;;;;;;;5064283;28;20111;-71
2023/10/23 10:58:06;;;;;;;3.95;2.40;;;18.40;99.90;;;;;;5058989;28;20523;-71
2023/10/23 11:00:33;;;;;;;3.85;2.47;;;18.30;99.90;;;;;;5057201;28;20123;-71
2023/10/23 11:03:00;;;;;;;4.90;3.15;;;;;;;;;;5057721;28;20749;-71
2023/10/23 11:05:25;;;;;;;4.07;2.72;;;18.60;99.90;;;;;;5060224;28;20056;-71
2023/10/23 11:07:51;;;;;;;4.20;3.10;;;;;;;;;;5056899;28;20095;-71
2023/10/23 11:10:19;;;;;;;2.88;2.45;;;18.70;99.90;;;;;;5063497;28;20098;-71
2023/10/23 11:12:46;;;;;;;4.82;2.90;;;;;;;;;;5058860;28;20049;-71
2023/10/23 11:15:13;;;;;;;5.07;2.67;;;18.80;99.90;;;;;;5065139;28;20051;-71
2023/10/23 11:17:41;;;;;;;3.38;2.20;;;18.70;99.90;;;;;;5065590;28;20037;-71
2023/10/23 11:20:11;;;;;;;4.72;2.90;;;18.80;99.90;;;;;;5070243;28;20036;-71
2023/10/23 11:22:40;;;;;;;4.75;2.85;;;18.80;99.90;;;;;;5054801;28;20075;-71
2023/10/23 11:25:08;;;;;;;3.63;2.40;;;19.20;99.90;;;;;;5051712;28;20059;-71
2023/10/23 11:27:34;;;;;;;4.35;2.25;;;;;;;;;;5052454;28;20455;-71
2023/10/23 11:30:00;;;;;;;4.28;2.47;;;18.90;99.90;;;;;;5067860;28;20118;-71
2023/10/23 11:32:28;;;;;;;2.97;2.28;;;19.00;99.90;;;;;;5064122;28;20048;-71
2023/10/23 11:35:08;;;;;;;3.10;2.42;;;19.30;99.90;;;;;;5043790;28;20570;-71
2023/10/23 11:37:38;;;;;;;7.88;2.55;;;19.20;99.90;;;;;;5052366;28;20041;-72
2023/10/23 11:40:05;;;;;;;3.72;2.47;;;19.50;99.90;;;;;;5051371;28;20037;-71
2023/10/23 11:42:40;;;;;;;9.63;2.80;;;18.80;99.90;;;;;;5051028;28;20131;-71
2023/10/23 11:45:09;;;;;;;5.07;2.35;;;19.10;99.90;;;;;;5061428;28;20036;-71
2023/10/23 11:47:37;;;;;;;4.35;2.05;;;19.10;99.90;;;;;;5051726;28;20037;-71
2023/10/23 11:50:06;;;;;;;4.50;2.20;;;19.30;99.90;;;;;;5051557;28;20048;-71
2023/10/23 11:52:33;;;;;;;2.55;1.73;;;19.00;99.90;;;;;;5058637;28;20052;-71
2023/10/23 11:54:59;;;;;;;8.13;2.55;;;19.40;99.90;;;;;;5063379;28;20048;-71
2023/10/23 11:57:24;;;;;;;3.42;1.70;;;19.30;99.90;;;;;;5064857;28;20036;-71
2023/10/23 11:59:50;;;;;;;3.63;1.90;;;19.50;99.90;;;;;;5069365;28;20029;-71
2023/10/23 12:02:15;;;;;;;2.95;1.70;;;19.50;99.90;;;;;;5062612;28;20534;-71
2023/10/23 12:04:41;;;;;;;10.93;2.40;;;19.60;99.90;;;;;;5065054;28;20035;-71
2023/10/23 12:07:07;;;;;;;2.25;1.75;;;19.40;99.90;;;;;;5070855;28;20082;-71
2023/10/23 12:09:32;;;;;;;2.95;1.50;;;19.20;99.90;;;;;;5069250;28;20040;-71
2023/10/23 12:11:58;;;;;;;3.33;1.92;;;18.70;99.90;;;;;;5070470;28;20542;-71
2023/10/23 12:14:24;;;;;;;4.47;2.00;;;19.50;99.90;;;;;;5070408;28;20124;-71
2023/10/23 12:16:49;;;;;;;3.97;2.00;;;19.50;99.90;;;;;;5068023;28;20090;-71
2023/10/23 12:19:15;;;;;;;4.07;1.92;;;19.60;99.90;;;;;;5042187;28;20127;-71
2023/10/23 12:21:40;;;;;;;7.28;2.00;;;19.50;99.90;;;;;;5056310;28;20043;-71
2023/10/23 12:24:07;;;;;;;4.55;2.08;;;19.70;99.90;;;;;;5063796;28;20532;-71
2023/10/23 12:26:32;;;;;;;5.90;2.45;;;19.40;99.90;;;;;;5065270;28;20063;-71
2023/10/23 12:28:59;;;;;;;5.07;2.70;;;19.40;99.90;;;;;;5058484;28;20530;-71
2023/10/23 12:31:26;;;;;;;7.43;3.65;;;19.10;99.90;;;;;;5071014;28;20051;-71
2023/10/23 12:33:52;;;;;;;12.32;3.97;;;19.20;99.90;;;;;;5066625;28;20139;-71
2023/10/23 12:36:18;;;;;;;4.97;3.40;;;19.50;99.90;;;;;;5070280;28;20123;-71
2023/10/23 12:38:43;;;;;;;4.70;3.08;;;19.40;99.90;;;;;;5050411;28;20399;-71
2023/10/23 12:41:09;;;;;;;6.13;3.28;;;19.30;99.90;;;;;;5086876;28;20032;-71
2023/10/23 12:43:34;;;;;;;5.32;3.97;;;19.50;99.90;;;;;;5062592;28;20040;-71
2023/10/23 12:46:00;;;;;;;7.40;3.97;;;19.80;99.90;;;;;;5067223;28;20043;-72
2023/10/23 12:48:26;;;;;;;7.85;4.20;;;19.30;99.90;;;;;;5053926;28;20037;-72
2023/10/23 12:50:51;;;;;;;12.48;4.65;;;19.50;99.90;;;;;;5067376;28;20090;-72
2023/10/23 12:53:17;;;;;;;6.32;4.00;;;19.40;99.90;;;;;;5068250;28;20085;-70
2023/10/23 12:55:43;;;;;;;4.80;3.53;;;19.40;99.90;;;;;;5065931;28;20052;-71
2023/10/23 12:58:09;;;;;;;6.10;3.90;;;19.20;99.90;;;;;;5058334;28;20063;-71
2023/10/23 13:00:35;;;;;;;6.05;3.88;;;19.50;99.90;;;;;;5049425;28;20619;-71
2023/10/23 13:03:01;;;;;;;8.05;4.55;;;19.40;99.90;;;;;;5051395;28;20044;-70
2023/10/23 13:05:27;;;;;;;7.53;4.85;;;19.30;99.90;;;;;;5061100;28;20036;-71
2023/10/23 13:07:52;;;;;;;6.68;5.43;;;19.40;99.90;;;;;;5071342;28;20049;-71
2023/10/23 13:10:18;;;;;;;8.55;6.25;;;19.30;99.90;;;;;;5052307;28;20082;-71
2023/10/23 13:12:44;;;;;;;7.57;5.55;;;19.30;99.90;;;;;;5069299;28;20523;-71
2023/10/23 13:15:09;;;;;;;6.47;5.15;;;19.30;99.90;;;;;;5052609;28;20045;-71
2023/10/23 13:17:35;;;;;;;7.00;4.90;;;19.60;99.90;;;;;;5066968;28;20029;-71
2023/10/23 13:20:00;;;;;;;6.97;5.72;;;19.20;99.90;;;;;;5069114;28;20032;-71